createdAt,value
2022-09-09T00:01:53.705Z,56.18
2022-09-09T00:04:27.497Z,56.41
2022-09-09T00:07:04.447Z,56.82
2022-09-09T00:09:33.008Z,57.09
2022-09-09T00:12:04.336Z,56.93
2022-09-09T00:14:36.804Z,57.17
2022-09-09T00:17:05.847Z,57.32
2022-09-09T00:19:35.462Z,57.58
2022-09-09T00:22:11.167Z,57.92
2022-09-09T00:24:40.771Z,57.76
2022-09-09T00:27:09.309Z,57.89
2022-09-09T00:29:41.007Z,57.75
2022-09-09T00:32:13.759Z,58.23
2022-09-09T00:34:50.739Z,57.99
2022-09-09T00:37:20.557Z,57.93
2022-09-09T00:39:49.041Z,57.99
2022-09-09T00:42:18.475Z,58.34
2022-09-09T00:44:54.227Z,58.24
2022-09-09T00:47:43.850Z,58.22
2022-09-09T00:50:41.839Z,58.23
2022-09-09T00:53:19.352Z,58.90
2022-09-09T00:55:48.933Z,58.78
2022-09-09T00:58:16.689Z,58.56
2022-09-09T01:00:45.412Z,58.89
2022-09-09T01:03:25.509Z,59.00
2022-09-09T01:05:58.949Z,59.27
2022-09-09T01:08:45.441Z,58.68
2022-09-09T01:11:14.989Z,58.94
2022-09-09T01:13:42.585Z,58.78
2022-09-09T01:16:10.726Z,58.58
2022-09-09T01:18:39.665Z,58.44
2022-09-09T01:21:11.700Z,58.31
2022-09-09T01:24:07.773Z,57.81
2022-09-09T01:26:37.102Z,57.69
2022-09-09T01:29:04.927Z,57.80
2022-09-09T01:31:37.717Z,57.82
2022-09-09T01:34:10.780Z,57.82
2022-09-09T01:36:41.190Z,57.52
2022-09-09T01:39:16.731Z,57.61
2022-09-09T01:41:45.836Z,57.48
2022-09-09T01:44:13.561Z,57.68
2022-09-09T01:46:41.143Z,57.63
2022-09-09T01:49:08.970Z,57.75
2022-09-09T01:51:36.772Z,57.42
2022-09-09T01:54:04.453Z,57.65
2022-09-09T01:56:38.069Z,57.65
2022-09-09T01:59:13.474Z,57.46
2022-09-09T02:02:02.218Z,57.45
2022-09-09T02:04:37.937Z,57.52
2022-09-09T02:07:05.805Z,57.32
2022-09-09T02:09:33.592Z,57.53
2022-09-09T02:12:04.577Z,57.20
2022-09-09T02:14:36.756Z,57.15
2022-09-09T02:17:06.173Z,57.13
2022-09-09T02:19:34.647Z,56.98
2022-09-09T02:22:02.485Z,57.06
2022-09-09T02:24:30.724Z,57.45
2022-09-09T02:26:58.499Z,57.30
2022-09-09T02:29:28.021Z,57.70
2022-09-09T02:31:57.443Z,57.29
2022-09-09T02:34:25.216Z,57.48
2022-09-09T02:36:52.880Z,57.59
2022-09-09T02:39:20.888Z,57.54
2022-09-09T02:41:48.682Z,57.36
2022-09-09T02:44:17.845Z,57.23
2022-09-09T02:46:56.205Z,57.43
2022-09-09T02:49:29.824Z,56.69
2022-09-09T02:54:29.118Z,57.09
2022-09-09T02:56:57.329Z,57.12
2022-09-09T02:59:25.134Z,56.92
2022-09-09T03:01:54.222Z,56.88
2022-09-09T03:04:22.187Z,57.24
2022-09-09T03:06:51.192Z,56.98
2022-09-09T03:09:19.034Z,57.14
2022-09-09T03:11:46.624Z,57.13
2022-09-09T03:14:14.286Z,57.02
2022-09-09T03:16:43.317Z,57.42
2022-09-09T03:19:12.002Z,57.34
2022-09-09T03:21:43.740Z,57.33
2022-09-09T03:24:13.146Z,57.12
2022-09-09T03:26:41.710Z,57.60
2022-09-09T03:29:10.054Z,57.52
2022-09-09T03:31:37.834Z,57.64
2022-09-09T03:34:28.846Z,57.62
2022-09-09T03:36:56.569Z,57.74
2022-09-09T03:39:25.667Z,57.69
2022-09-09T03:41:53.372Z,57.65
2022-09-09T03:44:20.949Z,57.54
2022-09-09T03:46:48.832Z,57.63
2022-09-09T03:49:16.354Z,57.74
2022-09-09T03:51:44.153Z,57.68
2022-09-09T03:54:11.779Z,57.67
2022-09-09T03:56:42.425Z,57.99
2022-09-09T03:59:10.588Z,57.72
2022-09-09T04:01:38.183Z,57.69
2022-09-09T04:04:05.860Z,57.73
2022-09-09T04:06:33.491Z,57.86
2022-09-09T04:09:03.283Z,57.85
2022-09-09T04:11:30.867Z,58.05
2022-09-09T04:13:59.851Z,57.86
2022-09-09T04:16:27.638Z,57.72
2022-09-09T04:18:56.973Z,57.89
2022-09-09T04:21:24.538Z,57.75
2022-09-09T04:23:52.235Z,57.74
2022-09-09T04:26:20.121Z,57.85
2022-09-09T04:28:47.910Z,57.61
2022-09-09T04:31:18.817Z,57.98
2022-09-09T04:33:47.266Z,57.88
2022-09-09T04:36:15.199Z,57.69
2022-09-09T04:38:42.812Z,57.73
2022-09-09T04:41:12.121Z,57.68
2022-09-09T04:43:39.701Z,57.52
2022-09-09T04:46:07.581Z,57.33
2022-09-09T04:48:38.941Z,57.36
2022-09-09T04:51:07.457Z,57.39
2022-09-09T04:53:35.456Z,57.32
2022-09-09T04:56:03.823Z,57.22
2022-09-09T04:58:31.463Z,57.25
2022-09-09T05:01:05.847Z,56.74
2022-09-09T05:03:33.545Z,57.12
2022-09-09T05:06:07.408Z,57.04
2022-09-09T05:08:35.262Z,56.71
2022-09-09T05:11:02.945Z,56.55
2022-09-09T05:13:32.485Z,56.52
2022-09-09T05:16:00.260Z,56.66
2022-09-09T05:18:27.889Z,56.64
2022-09-09T05:21:02.072Z,56.49
2022-09-09T05:23:31.002Z,56.57
2022-09-09T05:25:58.815Z,56.51
2022-09-09T05:28:27.432Z,56.56
2022-09-09T05:30:59.351Z,56.46
2022-09-09T05:33:27.731Z,56.51
2022-09-09T05:35:59.745Z,56.17
2022-09-09T05:38:38.216Z,56.37
2022-09-09T05:41:07.891Z,56.45
2022-09-09T05:43:36.919Z,56.25
2022-09-09T05:46:06.235Z,56.41
2022-09-09T05:48:35.820Z,56.20
2022-09-09T05:51:03.726Z,56.13
2022-09-09T05:53:33.089Z,56.29
2022-09-09T05:56:02.753Z,56.12
2022-09-09T05:58:32.069Z,56.22
2022-09-09T06:01:04.171Z,56.42
2022-09-09T06:03:31.948Z,56.73
2022-09-09T06:06:00.689Z,56.88
2022-09-09T06:08:28.409Z,56.89
2022-09-09T06:10:57.344Z,57.03
2022-09-09T06:13:25.248Z,57.39
2022-09-09T06:15:54.519Z,56.94
2022-09-09T06:18:22.536Z,57.33
2022-09-09T06:20:57.749Z,56.94
2022-09-09T06:23:25.663Z,57.38
2022-09-09T06:25:53.455Z,57.43
2022-09-09T06:28:21.039Z,57.31
2022-09-09T06:30:48.663Z,57.52
2022-09-09T06:33:27.240Z,57.35
2022-09-09T06:35:55.097Z,57.33
2022-09-09T06:38:24.201Z,57.51
2022-09-09T06:40:56.653Z,57.48
2022-09-09T06:43:24.303Z,57.61
2022-09-09T06:45:56.105Z,57.53
2022-09-09T06:48:23.837Z,57.06
2022-09-09T06:50:52.830Z,57.24
2022-09-09T06:53:23.232Z,56.89
2022-09-09T06:55:50.887Z,57.19
2022-09-09T06:58:19.160Z,57.12
2022-09-09T07:00:46.759Z,56.82
2022-09-09T07:03:14.519Z,56.72
2022-09-09T07:05:42.092Z,55.99
2022-09-09T07:08:11.111Z,55.60
2022-09-09T07:10:38.702Z,55.08
2022-09-09T07:13:06.851Z,55.26
2022-09-09T07:15:34.658Z,55.44
2022-09-09T07:18:03.555Z,55.10
2022-09-09T07:20:31.219Z,54.96
2022-09-09T07:22:59.386Z,54.07
2022-09-09T07:25:29.904Z,53.41
2022-09-09T07:27:58.166Z,52.46
2022-09-09T07:30:27.888Z,52.23
2022-09-09T07:32:58.094Z,50.91
2022-09-09T07:35:25.935Z,49.31
2022-09-09T07:37:53.624Z,47.55
2022-09-09T07:40:22.694Z,46.79
2022-09-09T07:42:51.812Z,47.08
2022-09-09T07:45:19.511Z,47.11
2022-09-09T07:47:47.444Z,47.06
2022-09-09T07:50:16.049Z,47.70
2022-09-09T07:52:43.737Z,48.21
2022-09-09T07:55:11.657Z,48.57
2022-09-09T07:57:39.529Z,48.93
2022-09-09T08:00:11.289Z,48.84
2022-09-09T08:02:38.965Z,49.00
2022-09-09T08:05:07.037Z,48.74
2022-09-09T08:07:35.270Z,48.15
2022-09-09T08:10:02.975Z,48.56
2022-09-09T08:12:30.628Z,46.25
2022-09-09T08:14:58.251Z,43.98
2022-09-09T08:17:27.779Z,41.95
2022-09-09T08:19:56.097Z,41.17
2022-09-09T08:22:25.445Z,41.02
2022-09-09T08:24:56.616Z,39.83
2022-09-09T08:27:25.166Z,38.78
2022-09-09T08:29:53.063Z,37.10
2022-09-09T08:32:20.977Z,35.84
2022-09-09T08:34:54.633Z,34.48
2022-09-09T08:37:22.534Z,33.79
2022-09-09T08:39:53.964Z,33.22
2022-09-09T08:42:40.369Z,32.34
2022-09-09T08:45:24.081Z,32.03
2022-09-09T08:47:58.024Z,31.23
2022-09-09T08:50:28.907Z,30.94
2022-09-09T08:52:59.371Z,32.47
2022-09-09T08:55:30.832Z,32.55
2022-09-09T08:58:01.885Z,33.62
2022-09-09T09:00:36.343Z,35.05
2022-09-09T09:03:10.160Z,35.94
2022-09-09T09:05:42.304Z,36.45
2022-09-09T09:08:13.522Z,37.14
2022-09-09T09:10:47.824Z,37.81
2022-09-09T09:13:21.969Z,38.00
2022-09-09T09:15:52.450Z,38.61
2022-09-09T09:18:20.680Z,39.28
2022-09-09T09:21:00.582Z,39.13
2022-09-09T09:23:36.484Z,39.31
2022-09-09T09:26:31.451Z,39.85
2022-09-09T09:28:59.122Z,40.46
2022-09-09T09:31:28.028Z,40.94
2022-09-09T09:33:56.213Z,41.06
2022-09-09T09:36:27.105Z,41.29
2022-09-09T09:41:44.715Z,39.97
2022-09-09T09:44:24.500Z,38.87
2022-09-09T09:46:52.152Z,38.84
2022-09-09T09:49:20.001Z,37.34
2022-09-09T09:51:49.051Z,37.11
2022-09-09T09:54:21.418Z,36.54
2022-09-09T09:56:51.652Z,36.03
2022-09-09T09:59:38.824Z,36.40
2022-09-09T10:02:18.321Z,36.96
2022-09-09T10:04:47.319Z,36.02
2022-09-09T10:07:20.028Z,35.52
2022-09-09T10:09:48.507Z,36.17
2022-09-09T10:12:22.046Z,35.64
2022-09-09T10:14:53.425Z,35.89
2022-09-09T10:17:24.421Z,36.01
2022-09-09T10:19:59.910Z,35.79
2022-09-09T10:22:29.411Z,35.31
2022-09-09T10:25:07.074Z,33.62
2022-09-09T10:27:39.004Z,31.44
2022-09-09T10:30:11.888Z,29.71
2022-09-09T10:32:43.883Z,29.60
2022-09-09T10:35:14.202Z,30.27
2022-09-09T10:38:11.874Z,30.78
2022-09-09T10:40:41.331Z,31.21
2022-09-09T10:43:15.404Z,31.15
2022-09-09T10:45:49.400Z,30.04
2022-09-09T10:48:25.453Z,28.13
2022-09-09T10:51:03.571Z,28.47
2022-09-09T10:53:39.747Z,28.39
2022-09-09T10:56:09.099Z,29.50
2022-09-09T10:58:40.102Z,29.86
2022-09-09T11:01:11.989Z,30.40
2022-09-09T11:03:43.118Z,30.21
2022-09-09T11:06:31.127Z,30.13
2022-09-09T11:09:00.927Z,30.30
2022-09-09T11:11:48.958Z,30.31
2022-09-09T11:14:19.947Z,30.47
2022-09-09T11:16:50.087Z,30.62
2022-09-09T11:19:22.239Z,30.51
2022-09-09T11:21:50.706Z,29.55
2022-09-09T11:24:23.660Z,29.05
2022-09-09T11:26:53.535Z,29.49
2022-09-09T11:29:53.417Z,28.79
2022-09-09T11:32:42.148Z,29.72
2022-09-09T11:35:19.873Z,29.56
2022-09-09T11:37:56.613Z,30.78
2022-09-09T11:40:27.125Z,30.68
2022-09-09T11:43:05.356Z,30.80
2022-09-09T11:45:33.222Z,31.56
2022-09-09T11:48:01.864Z,32.01
2022-09-09T11:50:32.022Z,32.58
2022-09-09T11:53:24.544Z,32.73
2022-09-09T11:56:13.954Z,34.87
2022-09-09T11:58:43.579Z,35.62
2022-09-09T12:01:39.851Z,36.16
2022-09-09T12:04:28.847Z,38.45
2022-09-09T12:06:58.534Z,39.10
2022-09-09T12:09:30.104Z,40.07
2022-09-09T12:12:23.555Z,40.19
2022-09-09T12:15:21.689Z,40.01
2022-09-09T12:17:51.389Z,40.13
2022-09-09T12:20:20.590Z,39.39
2022-09-09T12:22:58.737Z,39.46
2022-09-09T12:25:31.567Z,39.12
2022-09-09T12:28:07.633Z,38.13
2022-09-09T12:30:37.824Z,37.01
2022-09-09T12:33:10.939Z,36.51
2022-09-09T12:35:39.630Z,36.32
2022-09-09T12:38:12.224Z,36.88
2022-09-09T12:40:40.572Z,37.18
2022-09-09T12:43:20.763Z,37.68
2022-09-09T12:45:49.725Z,37.80
2022-09-09T12:48:17.896Z,38.07
2022-09-09T12:50:47.239Z,38.85
2022-09-09T12:53:26.137Z,39.01
2022-09-09T12:55:55.087Z,38.97
2022-09-09T12:58:24.104Z,37.75
2022-09-09T13:00:53.178Z,37.10
2022-09-09T13:03:22.194Z,37.65
2022-09-09T13:05:50.054Z,37.26
2022-09-09T13:08:21.393Z,37.50
2022-09-09T13:10:53.654Z,37.66
2022-09-09T13:13:25.664Z,37.72
2022-09-09T13:15:54.708Z,37.77
2022-09-09T13:18:23.993Z,38.31
2022-09-09T13:20:52.128Z,38.51
2022-09-09T13:23:20.618Z,39.36
2022-09-09T13:25:55.638Z,40.08
2022-09-09T13:28:26.506Z,41.00
2022-09-09T13:31:03.315Z,42.63
2022-09-09T13:33:33.078Z,43.39
2022-09-09T13:36:01.636Z,44.76
2022-09-09T13:38:29.862Z,45.25
2022-09-09T13:41:04.210Z,45.42
2022-09-09T13:43:34.201Z,45.22
2022-09-09T13:46:03.269Z,45.17
2022-09-09T13:48:36.999Z,45.23
2022-09-09T13:51:06.160Z,44.71
2022-09-09T13:53:34.044Z,44.59
2022-09-09T13:56:02.601Z,44.59
2022-09-09T13:58:30.887Z,44.85
2022-09-09T14:01:00.166Z,45.20
2022-09-09T14:03:27.922Z,45.43
2022-09-09T14:05:55.774Z,44.70
2022-09-09T14:08:26.281Z,44.40
2022-09-09T14:10:59.276Z,43.78
2022-09-09T14:13:26.999Z,43.58
2022-09-09T14:15:54.654Z,43.42
2022-09-09T14:18:26.244Z,43.36
2022-09-09T14:20:54.177Z,43.42
2022-09-09T14:23:22.972Z,43.42
2022-09-09T14:25:50.983Z,43.85
2022-09-09T14:28:20.477Z,43.67
2022-09-09T14:30:53.704Z,44.20
2022-09-09T14:33:22.817Z,44.30
2022-09-09T14:35:50.446Z,44.78
2022-09-09T14:38:19.303Z,45.19
2022-09-09T14:40:47.792Z,45.04
2022-09-09T14:43:15.756Z,44.92
2022-09-09T14:45:44.309Z,45.28
2022-09-09T14:48:11.933Z,45.18
2022-09-09T14:50:40.976Z,45.00
2022-09-09T14:53:09.611Z,46.06
2022-09-09T14:55:37.471Z,48.68
2022-09-09T14:58:05.366Z,49.40
2022-09-09T15:00:33.008Z,50.29
2022-09-09T15:03:00.674Z,50.99
2022-09-09T15:05:29.443Z,52.21
2022-09-09T15:07:59.495Z,52.91
2022-09-09T15:10:27.460Z,53.38
2022-09-09T15:12:55.125Z,53.55
2022-09-09T15:15:22.708Z,53.92
2022-09-09T15:17:50.353Z,53.88
2022-09-09T15:20:18.183Z,54.10
2022-09-09T15:22:45.825Z,54.50
2022-09-09T15:25:14.975Z,53.43
2022-09-09T15:27:42.594Z,53.27
2022-09-09T15:30:11.549Z,53.22
2022-09-09T15:32:40.602Z,53.51
2022-09-09T15:35:21.262Z,53.70
2022-09-09T15:37:49.032Z,53.74
2022-09-09T15:40:18.060Z,53.61
2022-09-09T15:42:47.135Z,53.68
2022-09-09T15:45:16.112Z,53.32
2022-09-09T15:47:44.508Z,52.61
2022-09-09T15:50:12.752Z,52.08
2022-09-09T15:52:40.513Z,51.82
2022-09-09T15:55:09.176Z,51.74
2022-09-09T15:57:38.203Z,51.43
2022-09-09T16:00:07.096Z,51.29
2022-09-09T16:02:35.073Z,51.27
2022-09-09T16:05:03.136Z,51.38
2022-09-09T16:07:30.792Z,51.52
2022-09-09T16:09:58.441Z,52.04
2022-09-09T16:12:27.169Z,52.08
2022-09-09T16:14:56.783Z,52.00
2022-09-09T16:17:24.424Z,51.69
2022-09-09T16:19:56.171Z,52.32
2022-09-09T16:22:24.687Z,52.50
2022-09-09T16:24:52.468Z,52.71
2022-09-09T16:27:20.182Z,53.13
2022-09-09T16:29:47.955Z,53.30
2022-09-09T16:32:17.361Z,53.51
2022-09-09T16:34:46.780Z,54.06
2022-09-09T16:37:14.469Z,54.15
2022-09-09T16:39:42.202Z,54.38
2022-09-09T16:42:10.660Z,54.13
2022-09-09T16:44:38.455Z,54.36
2022-09-09T16:47:06.505Z,54.29
2022-09-09T16:52:03.713Z,54.49
2022-09-09T16:54:31.605Z,54.65
2022-09-09T16:56:59.565Z,54.50
2022-09-09T16:59:29.768Z,54.90
2022-09-09T17:01:57.517Z,55.14
2022-09-09T17:04:28.685Z,55.19
2022-09-09T17:06:56.757Z,55.43
2022-09-09T17:09:29.637Z,55.32
2022-09-09T17:11:57.263Z,55.30
2022-09-09T17:14:25.369Z,55.61
2022-09-09T17:16:53.166Z,55.71
2022-09-09T17:19:20.922Z,56.17
2022-09-09T17:22:14.805Z,55.80
2022-09-09T17:24:39.494Z,55.86
2022-09-09T17:27:07.390Z,56.11
2022-09-09T17:29:36.938Z,56.09
2022-09-09T17:32:06.304Z,56.03
2022-09-09T17:34:34.087Z,55.75
2022-09-09T17:37:01.846Z,55.78
2022-09-09T17:39:29.855Z,55.85
2022-09-09T17:41:58.915Z,55.62
2022-09-09T17:44:27.249Z,55.79
2022-09-09T17:46:55.432Z,55.86
2022-09-09T17:49:23.120Z,55.82
2022-09-09T17:51:50.733Z,55.45
2022-09-09T17:54:19.193Z,55.51
2022-09-09T17:56:47.814Z,55.68
2022-09-09T17:59:17.593Z,56.25
2022-09-09T18:01:45.975Z,56.32
2022-09-09T18:04:14.976Z,56.34
2022-09-09T18:06:43.750Z,56.93
2022-09-09T18:09:13.174Z,57.17
2022-09-09T18:11:43.878Z,57.11
2022-09-09T18:14:12.605Z,57.52
2022-09-09T18:16:41.674Z,57.75
2022-09-09T18:19:13.615Z,57.70
2022-09-09T18:21:41.840Z,58.12
2022-09-09T18:24:10.566Z,58.14
2022-09-09T18:26:39.236Z,58.16
2022-09-09T18:29:07.758Z,58.63
2022-09-09T18:31:35.627Z,58.83
2022-09-09T18:34:05.045Z,58.93
2022-09-09T18:36:35.113Z,58.61
2022-09-09T18:39:03.526Z,58.48
2022-09-09T18:41:32.380Z,58.96
2022-09-09T18:44:00.498Z,58.92
2022-09-09T18:46:28.978Z,59.21
2022-09-09T18:48:57.016Z,59.19
2022-09-09T18:51:27.392Z,59.15
2022-09-09T18:53:56.937Z,58.99
2022-09-09T18:56:24.719Z,58.99
2022-09-09T18:58:53.238Z,59.34
2022-09-09T19:01:20.877Z,59.13
2022-09-09T19:03:48.843Z,59.14
2022-09-09T19:06:17.627Z,59.11
2022-09-09T19:08:48.513Z,58.91
2022-09-09T19:11:19.865Z,59.05
2022-09-09T19:13:51.327Z,58.98
2022-09-09T19:16:19.338Z,58.80
2022-09-09T19:18:48.247Z,58.59
2022-09-09T19:21:18.272Z,58.65
2022-09-09T19:23:47.535Z,58.64
2022-09-09T19:26:17.034Z,58.47
2022-09-09T19:28:45.806Z,58.75
2022-09-09T19:31:15.533Z,58.70
2022-09-09T19:33:45.436Z,58.50
2022-09-09T19:36:13.140Z,58.92
2022-09-09T19:38:42.763Z,58.80
2022-09-09T19:41:13.600Z,59.00
2022-09-09T19:43:41.267Z,59.01
2022-09-09T19:46:11.452Z,59.22
2022-09-09T19:48:40.615Z,59.41
2022-09-09T19:51:09.278Z,59.71
2022-09-09T19:53:38.669Z,59.67
2022-09-09T19:56:09.400Z,59.56
2022-09-09T19:58:39.926Z,59.21
2022-09-09T20:01:10.517Z,59.43
2022-09-09T20:03:39.136Z,59.27
2022-09-09T20:06:07.392Z,59.16
2022-09-09T20:08:35.474Z,59.12
2022-09-09T20:11:03.487Z,58.95
2022-09-09T20:13:31.972Z,59.24
2022-09-09T20:16:01.847Z,59.13
2022-09-09T20:18:31.166Z,58.61
2022-09-09T20:21:00.828Z,58.93
2022-09-09T20:23:29.089Z,58.45
2022-09-09T20:25:57.139Z,58.56
2022-09-09T20:28:27.466Z,58.26
2022-09-09T20:30:55.364Z,58.29
2022-09-09T20:33:25.603Z,58.19
2022-09-09T20:35:54.049Z,58.06
2022-09-09T20:38:23.246Z,58.44
2022-09-09T20:40:52.237Z,58.23
2022-09-09T20:43:23.669Z,58.17
2022-09-09T20:45:53.792Z,58.10
2022-09-09T20:48:22.009Z,57.81
2022-09-09T20:50:54.132Z,57.72
2022-09-09T20:53:23.172Z,57.74
2022-09-09T20:55:51.768Z,57.65
2022-09-09T20:58:19.901Z,57.90
2022-09-09T21:00:49.244Z,57.57
2022-09-09T21:03:17.610Z,57.67
2022-09-09T21:05:45.448Z,57.52
2022-09-09T21:08:14.986Z,57.55
2022-09-09T21:10:46.942Z,57.49
2022-09-09T21:13:14.833Z,57.49
2022-09-09T21:15:42.677Z,57.31
2022-09-09T21:18:11.225Z,57.55
2022-09-09T21:20:39.182Z,57.05
2022-09-09T21:23:07.682Z,57.55
2022-09-09T21:25:37.162Z,57.60
2022-09-09T21:28:05.847Z,57.64
2022-09-09T21:30:41.873Z,57.52
2022-09-09T21:33:11.612Z,57.51
2022-09-09T21:35:40.016Z,57.42
2022-09-09T21:38:07.902Z,57.39
2022-09-09T21:40:39.355Z,57.42
2022-09-09T21:43:08.307Z,57.31
2022-09-09T21:45:36.120Z,57.34
2022-09-09T21:48:07.241Z,57.38
2022-09-09T21:50:37.244Z,57.50
2022-09-09T21:53:05.083Z,57.59
2022-09-09T21:55:43.330Z,57.55
2022-09-09T21:58:11.636Z,57.34
2022-09-09T22:00:42.342Z,57.82
2022-09-09T22:03:10.309Z,57.61
2022-09-09T22:05:40.966Z,58.00
2022-09-09T22:08:09.140Z,57.87
2022-09-09T22:10:38.072Z,57.73
2022-09-09T22:13:07.368Z,58.01
2022-09-09T22:15:37.337Z,57.97
2022-09-09T22:18:05.830Z,57.74
2022-09-09T22:20:34.293Z,57.95
2022-09-09T22:23:02.330Z,57.77
2022-09-09T22:25:38.076Z,58.10
2022-09-09T22:28:08.230Z,58.14
2022-09-09T22:30:37.949Z,58.13
2022-09-09T22:33:06.148Z,58.07
2022-09-09T22:35:34.072Z,58.05
2022-09-09T22:38:02.188Z,58.34
2022-09-09T22:40:30.055Z,58.19
2022-09-09T22:42:57.949Z,58.23
2022-09-09T22:45:45.486Z,57.62
2022-09-09T22:48:13.339Z,58.01
2022-09-09T22:53:15.868Z,58.15
2022-09-09T22:55:43.583Z,58.14
2022-09-09T22:58:11.739Z,57.71
2022-09-09T23:00:40.121Z,57.87
2022-09-09T23:03:09.098Z,58.07
2022-09-09T23:05:38.492Z,58.05
2022-09-09T23:08:06.256Z,57.99
2022-09-09T23:10:34.056Z,57.88
2022-09-09T23:13:01.681Z,58.42
2022-09-09T23:15:31.370Z,57.79
2022-09-09T23:17:59.023Z,57.71
2022-09-09T23:20:28.195Z,57.48
2022-09-09T23:22:55.889Z,57.70
2022-09-09T23:25:23.829Z,57.42
2022-09-09T23:27:51.479Z,57.23
2022-09-09T23:30:20.419Z,57.40
2022-09-09T23:32:49.713Z,57.28
2022-09-09T23:35:17.519Z,57.51
2022-09-09T23:37:46.625Z,56.89
2022-09-09T23:40:14.392Z,56.99
2022-09-09T23:42:42.161Z,57.34
2022-09-09T23:45:11.120Z,57.11
2022-09-09T23:47:38.910Z,56.74
2022-09-09T23:50:08.336Z,56.85
2022-09-09T23:52:36.982Z,56.99
2022-09-09T23:55:08.643Z,57.05
2022-09-09T23:57:36.244Z,56.72
